Time;durP1;ratioP1;P1;durP2;ratioP2;P2;SDS_P1;SDS_P2;PMS_P1;PMS_P2;Temp;Humidity;BMP_temperature;BMP_pressure;BME280_temperature;BME280_humidity;BME280_pressure;Samples;Min_cycle;Max_cycle;Signal;HPM_P1;HPM_P2
2023/02/07 00:01:26;;;;;;;;;;;;;;;-0.59;55.73;94119.88;2051442;70;20053;-73
2023/02/07 00:03:53;;;;;;;;;;;;;;;-0.66;56.27;94111.34;2051342;70;20076;-73
2023/02/07 00:06:24;;;;;;;;;;;;;;;-0.33;54.91;94110.53;2051684;70;20062;-73
2023/02/07 00:08:51;;;;;;;;;;;;;;;-0.18;54.85;94111.03;2051633;70;20172;-73
2023/02/07 00:11:18;;;;;;;;;;;;;;;-0.46;55.69;94115.84;2051494;70;20130;-73
2023/02/07 00:13:45;;;;;;;;;;;;;;;-0.73;56.00;94100.75;2051659;70;20492;-74
2023/02/07 00:16:11;;;;;;;;;;;;;;;-0.24;54.99;94115.06;2048210;70;20134;-73
2023/02/07 00:18:39;;;;;;;;;;;;;;;-0.15;54.41;94123.09;2051546;70;20565;-73
2023/02/07 00:21:06;;;;;;;;;;;;;;;-0.11;53.91;94127.09;2051727;70;20046;-74
2023/02/07 00:23:32;;;;;;;;;;;;;;;-0.16;54.42;94138.19;2051682;70;20055;-73
2023/02/07 00:25:57;;;;;;;;;;;;;;;-0.26;54.25;94127.41;2048044;70;20056;-73
2023/02/07 00:28:23;;;;;;;;;;;;;;;-0.45;54.14;94125.66;2051526;70;20486;-72
2023/02/07 00:30:49;;;;;;;;;;;;;;;-0.13;54.17;94123.34;2051423;70;20050;-71
2023/02/07 00:33:14;;;;;;;;;;;;;;;-0.20;54.37;94134.94;2048297;70;20054;-71
2023/02/07 00:35:41;;;;;;;;;;;;;;;-0.58;55.72;94132.47;2048047;70;20054;-73
2023/02/07 00:38:07;;;;;;;;;;;;;;;-0.28;54.66;94134.69;2051551;70;20050;-74
2023/02/07 00:40:33;;;;;;;;;;;;;;;-0.74;56.49;94133.19;2047919;70;20043;-73
2023/02/07 00:42:58;;;;;;;;;;;;;;;-0.34;55.03;94136.72;2051474;70;20484;-75
2023/02/07 00:45:24;;;;;;;;;;;;;;;-0.77;56.34;94131.47;2048282;70;20047;-75
2023/02/07 00:47:49;;;;;;;;;;;;;;;-0.38;55.01;94136.22;2051631;70;20069;-73
2023/02/07 00:50:15;;;;;;;;;;;;;;;-0.65;55.60;94140.50;2051314;70;20505;-73
2023/02/07 00:52:42;;;;;;;;;;;;;;;-0.82;56.20;94146.03;2048199;70;20138;-73
2023/02/07 00:55:07;;;;;;;;;;;;;;;-1.04;57.49;94142.00;2051662;70;20051;-72
2023/02/07 00:57:33;;;;;;;;;;;;;;;-0.78;56.49;94144.53;2051494;70;20070;-73
2023/02/07 00:59:58;;;;;;;;;;;;;;;-0.62;56.17;94145.03;2048098;70;20502;-72
2023/02/07 01:02:23;;;;;;;;;;;;;;;-0.69;56.05;94146.28;2051280;70;20435;-71
2023/02/07 01:04:49;;;;;;;;;;;;;;;-0.83;56.56;94136.22;2051407;70;20503;-72
2023/02/07 01:07:15;;;;;;;;;;;;;;;-0.86;56.80;94132.47;2051385;70;20095;-72
2023/02/07 01:09:40;;;;;;;;;;;;;;;-0.65;56.34;94126.66;2051368;70;20049;-73
2023/02/07 01:12:05;;;;;;;;;;;;;;;-0.99;57.39;94126.66;2051452;70;20567;-74
2023/02/07 01:14:31;;;;;;;;;;;;;;;-0.98;58.09;94130.19;2045641;70;20066;-73
2023/02/07 01:16:56;;;;;;;;;;;;;;;-0.90;57.71;94136.72;2044502;70;20050;-72
2023/02/07 01:19:22;;;;;;;;;;;;;;;-0.80;57.25;94143.53;2044340;70;20039;-73
2023/02/07 01:21:49;;;;;;;;;;;;;;;-0.92;57.56;94155.81;2048252;70;20198;-71
2023/02/07 01:24:15;;;;;;;;;;;;;;;-1.08;58.19;94157.31;2044621;70;20146;-73
2023/02/07 01:26:40;;;;;;;;;;;;;;;-1.27;58.72;94156.28;2047984;70;20511;-73
2023/02/07 01:29:06;;;;;;;;;;;;;;;-1.43;59.86;94141.91;2048160;70;20047;-72
2023/02/07 01:31:31;;;;;;;;;;;;;;;-0.95;58.44;94137.47;2048047;70;20046;-72
2023/02/07 01:39:53;;;;;;;;;;;;;;;-0.72;56.18;94146.56;2082545;64;20114;-70
2023/02/07 01:42:21;;;;;;;;;;;;;;;-0.57;56.00;94150.56;2038188;70;20059;-71
2023/02/07 01:44:50;;;;;;;;;;;;;;;-0.58;55.46;94151.81;2034624;70;20091;-74
2023/02/07 01:47:25;;;;;;;;;;;;;;;-0.77;56.82;94151.56;2032301;70;20043;-71
2023/02/07 01:49:53;;;;;;;;;;;;;;;-0.77;56.10;94153.59;2038340;70;20176;-72
2023/02/07 01:52:22;;;;;;;;;;;;;;;-0.72;56.15;94155.59;2038339;70;20139;-71
2023/02/07 01:54:50;;;;;;;;;;;;;;;-0.67;54.77;94162.38;2038272;70;20051;-74
2023/02/07 01:57:18;;;;;;;;;;;;;;;-0.78;57.13;94168.66;2038324;70;20180;-71
2023/02/07 01:59:44;;;;;;;;;;;;;;;-0.73;56.76;94164.38;2037721;70;20047;-73
2023/02/07 02:02:14;;;;;;;;;;;;;;;-0.84;57.35;94157.59;2038238;70;20139;-73
2023/02/07 02:04:40;;;;;;;;;;;;;;;-0.81;57.60;94147.53;2038212;70;20050;-72
2023/02/07 02:07:07;;;;;;;;;;;;;;;-0.76;56.57;94155.09;2034929;70;20419;-71
2023/02/07 02:09:32;;;;;;;;;;;;;;;-0.87;56.93;94157.84;2038017;70;20063;-73
2023/02/07 02:12:17;;;;;;;;;;;;;;;-0.95;57.73;94146.53;2037992;70;20473;-73
2023/02/07 02:14:54;;;;;;;;;;;;;;;-0.83;57.19;94141.75;2034695;70;20083;-72
2023/02/07 02:17:25;;;;;;;;;;;;;;;-0.89;57.16;94143.75;2034562;70;20044;-71
2023/02/07 02:19:54;;;;;;;;;;;;;;;-0.88;56.34;94137.72;2034812;70;20445;-72
2023/02/07 02:22:38;;;;;;;;;;;;;;;-0.87;57.01;94147.56;2034575;70;20090;-71
2023/02/07 02:25:18;;;;;;;;;;;;;;;-1.01;57.29;94151.28;2034866;70;20050;-72
2023/02/07 02:27:57;;;;;;;;;;;;;;;-0.86;57.00;94153.84;2037934;70;20453;-75
2023/02/07 02:30:41;;;;;;;;;;;;;;;-1.00;56.40;94152.81;2037970;70;20472;-71
2023/02/07 02:33:13;;;;;;;;;;;;;;;-1.10;57.89;94151.50;2037499;70;20071;-72
2023/02/07 02:35:45;;;;;;;;;;;;;;;-1.06;56.89;94147.25;2034911;70;20048;-72
2023/02/07 02:38:30;;;;;;;;;;;;;;;-1.16;57.90;94143.22;2032506;70;20087;-74
2023/02/07 02:41:00;;;;;;;;;;;;;;;-1.16;58.21;94157.03;2042176;70;20039;-74
2023/02/07 02:43:35;;;;;;;;;;;;;;;-1.21;58.51;94149.50;2044462;70;20086;-72
2023/02/07 02:46:20;;;;;;;;;;;;;;;-1.20;57.88;94145.47;2041363;70;20078;-72
2023/02/07 02:48:46;;;;;;;;;;;;;;;-1.23;58.35;94145.72;2041335;70;20079;-75
2023/02/07 02:51:12;;;;;;;;;;;;;;;-1.31;57.46;94150.97;2044555;70;20175;-71
2023/02/07 02:53:37;;;;;;;;;;;;;;;-1.41;58.37;94161.50;2041352;70;20051;-71
2023/02/07 02:56:14;;;;;;;;;;;;;;;-1.42;58.87;94160.00;2041409;70;20427;-71
2023/02/07 02:58:58;;;;;;;;;;;;;;;-1.36;58.15;94166.28;2044438;70;20175;-73
2023/02/07 03:01:32;;;;;;;;;;;;;;;-1.32;57.56;94174.34;2044589;70;20051;-71
2023/02/07 03:03:59;;;;;;;;;;;;;;;-1.45;56.68;94185.09;2041398;70;20484;-72
2023/02/07 03:06:28;;;;;;;;;;;;;;;-1.71;58.73;94185.22;2041529;70;20142;-71
2023/02/07 03:09:12;;;;;;;;;;;;;;;-1.59;58.22;94184.03;2041443;70;20457;-73
2023/02/07 03:11:40;;;;;;;;;;;;;;;-1.67;57.30;94183.75;2044584;70;20083;-73
2023/02/07 03:14:06;;;;;;;;;;;;;;;-1.62;57.77;94180.25;2044472;70;20043;-71
2023/02/07 03:16:31;;;;;;;;;;;;;;;-1.60;58.18;94196.34;2044763;70;20047;-72
2023/02/07 03:19:07;;;;;;;;;;;;;;;-1.75;58.29;94199.25;2044722;70;20055;-72
2023/02/07 03:21:44;;;;;;;;;;;;;;;-1.83;58.14;94201.75;2044747;70;20511;-72
2023/02/07 03:24:15;;;;;;;;;;;;;;;-1.89;58.13;94211.25;2044963;70;20079;-76
2023/02/07 03:26:43;;;;;;;;;;;;;;;-1.80;57.55;94211.78;2044744;70;20114;-74
2023/02/07 03:29:09;;;;;;;;;;;;;;;-1.83;57.84;94220.31;2041150;70;20055;-73
2023/02/07 03:31:37;;;;;;;;;;;;;;;-1.93;57.55;94217.00;2044941;70;20487;-73
2023/02/07 03:34:06;;;;;;;;;;;;;;;-2.09;59.73;94217.66;2045163;70;20054;-72
2023/02/07 03:36:53;;;;;;;;;;;;;;;-2.04;59.37;94222.44;2044829;70;20135;-71
2023/02/07 03:39:19;;;;;;;;;;;;;;;-1.98;58.67;94230.75;2044848;70;20131;-73
2023/02/07 03:41:55;;;;;;;;;;;;;;;-2.10;58.88;94225.19;2044766;70;20138;-74
2023/02/07 03:44:22;;;;;;;;;;;;;;;-2.04;59.25;94230.72;2044711;70;20058;-72
2023/02/07 03:46:51;;;;;;;;;;;;;;;-2.00;58.93;94234.03;2044722;70;20047;-73
2023/02/07 03:49:17;;;;;;;;;;;;;;;-2.07;59.02;94237.97;2044536;70;20098;-73
2023/02/07 03:51:43;;;;;;;;;;;;;;;-2.15;60.20;94230.66;2044836;70;20052;-75
2023/02/07 03:54:08;;;;;;;;;;;;;;;-2.06;59.28;94230.47;2044606;70;20055;-73
2023/02/07 03:56:34;;;;;;;;;;;;;;;-2.18;59.36;94234.41;2038502;70;20181;-73
2023/02/07 03:59:00;;;;;;;;;;;;;;;-2.19;59.05;94227.38;2041288;70;20058;-72
2023/02/07 04:01:25;;;;;;;;;;;;;;;-2.26;59.65;94239.59;2044714;70;20047;-73
2023/02/07 04:03:51;;;;;;;;;;;;;;;-2.29;59.46;94246.13;2044632;70;20047;-76
2023/02/07 04:06:17;;;;;;;;;;;;;;;-2.35;59.04;94248.81;2044300;70;20162;-73
2023/02/07 04:08:42;;;;;;;;;;;;;;;-2.38;59.38;94263.59;2041219;70;20485;-71
2023/02/07 04:11:08;;;;;;;;;;;;;;;-2.37;59.24;94269.88;2041424;70;20102;-72
2023/02/07 04:13:33;;;;;;;;;;;;;;;-2.45;58.42;94282.59;2041336;70;20044;-73
2023/02/07 04:16:01;;;;;;;;;;;;;;;-2.50;58.71;94284.03;2041048;70;20163;-71
2023/02/07 04:18:27;;;;;;;;;;;;;;;-2.47;58.99;94285.84;2041073;70;20579;-75
2023/02/07 04:20:59;;;;;;;;;;;;;;;-2.61;60.37;94295.75;2041267;70;20051;-76
2023/02/07 04:23:24;;;;;;;;;;;;;;;-2.57;60.71;94295.50;2041275;70;20048;-73
2023/02/07 04:25:50;;;;;;;;;;;;;;;-2.57;60.09;94292.75;2041449;70;20043;-71
2023/02/07 04:28:15;;;;;;;;;;;;;;;-2.46;60.24;94303.91;2041266;70;20083;-72
2023/02/07 04:30:40;;;;;;;;;;;;;;;-2.59;60.51;94293.22;2041172;70;20150;-71
2023/02/07 04:33:06;;;;;;;;;;;;;;;-2.88;60.83;94307.97;2041200;70;20310;-73
2023/02/07 04:35:31;;;;;;;;;;;;;;;-2.95;61.80;94305.63;2041295;70;20059;-74
2023/02/07 04:37:57;;;;;;;;;;;;;;;-2.68;60.04;94304.44;2041138;70;20063;-71
2023/02/07 04:40:22;;;;;;;;;;;;;;;-2.74;60.02;94311.13;2041526;70;20091;-71
2023/02/07 04:42:47;;;;;;;;;;;;;;;-2.77;60.92;94309.34;2041614;70;20043;-71
2023/02/07 04:45:13;;;;;;;;;;;;;;;-2.82;60.97;94306.03;2041990;70;20056;-72
2023/02/07 04:47:39;;;;;;;;;;;;;;;-2.65;60.53;94311.72;2041800;70;20051;-74
2023/02/07 04:50:04;;;;;;;;;;;;;;;-2.79;61.16;94311.81;2041890;70;20050;-72
2023/02/07 04:52:30;;;;;;;;;;;;;;;-2.81;60.18;94307.53;2041826;70;20048;-71
2023/02/07 04:54:55;;;;;;;;;;;;;;;-2.87;59.39;94298.47;2041821;70;20067;-74
2023/02/07 04:57:21;;;;;;;;;;;;;;;-2.84;60.67;94302.25;2041830;70;20044;-71
2023/02/07 04:59:46;;;;;;;;;;;;;;;-2.89;61.08;94300.19;2041692;70;20067;-73
2023/02/07 05:02:12;;;;;;;;;;;;;;;-2.77;60.85;94301.81;2038707;70;20548;-73
2023/02/07 05:04:39;;;;;;;;;;;;;;;-2.73;59.70;94305.13;2041756;70;20062;-72
2023/02/07 05:07:05;;;;;;;;;;;;;;;-2.74;60.38;94300.88;2041782;70;20489;-76
2023/02/07 05:09:30;;;;;;;;;;;;;;;-3.02;60.95;94308.84;2038669;70;20515;-71
2023/02/07 05:11:56;;;;;;;;;;;;;;;-2.94;60.50;94318.16;2041698;70;20472;-72
2023/02/07 05:14:21;;;;;;;;;;;;;;;-3.00;60.40;94317.34;2041523;70;20198;-71
2023/02/07 05:16:46;;;;;;;;;;;;;;;-2.97;60.50;94323.91;2041554;70;20437;-71
2023/02/07 05:19:12;;;;;;;;;;;;;;;-3.04;60.09;94330.59;2041571;70;20147;-74
2023/02/07 05:21:37;;;;;;;;;;;;;;;-3.02;60.27;94336.38;2041522;70;20142;-73
2023/02/07 05:24:03;;;;;;;;;;;;;;;-3.01;59.97;94335.16;2038220;70;20058;-72
2023/02/07 05:26:28;;;;;;;;;;;;;;;-2.96;60.54;94339.19;2041825;70;20051;-75
2023/02/07 05:28:54;;;;;;;;;;;;;;;-2.98;60.80;94334.16;2041352;70;20492;-74
2023/02/07 05:33:02;;;;;;;;;;;;;;;-3.03;60.80;94328.59;2041645;70;20059;-75
2023/02/07 05:34:07;;;;;;;;;;;;;;;-3.29;60.53;94336.81;2041604;70;20100;-76
2023/02/07 05:36:32;;;;;;;;;;;;;;;-3.60;62.96;94333.38;2041602;70;20074;-75
2023/02/07 05:38:57;;;;;;;;;;;;;;;-3.45;62.91;94335.31;2041512;70;20079;-75
2023/02/07 05:41:23;;;;;;;;;;;;;;;-3.30;62.04;94333.25;2041543;70;20052;-72
2023/02/07 05:43:48;;;;;;;;;;;;;;;-3.14;61.43;94327.22;2041454;70;20123;-72
2023/02/07 05:46:14;;;;;;;;;;;;;;;-3.19;61.75;94338.94;2041572;70;20083;-73
2023/02/07 05:48:39;;;;;;;;;;;;;;;-3.18;61.29;94331.41;2041377;70;20143;-72
2023/02/07 05:51:05;;;;;;;;;;;;;;;-3.26;61.42;94338.56;2041388;70;20143;-72
2023/02/07 05:53:30;;;;;;;;;;;;;;;-3.22;61.82;94342.63;2041377;70;20054;-73
2023/02/07 05:55:55;;;;;;;;;;;;;;;-3.25;61.05;94338.09;2038229;70;20130;-72
2023/02/07 05:58:21;;;;;;;;;;;;;;;-3.29;61.57;94334.03;2041463;70;20055;-75
2023/02/07 06:00:47;;;;;;;;;;;;;;;-3.32;61.18;94319.97;2041683;70;20079;-77
2023/02/07 06:03:13;;;;;;;;;;;;;;;-3.38;62.18;94321.16;2041623;70;20063;-75
2023/02/07 06:05:38;;;;;;;;;;;;;;;-3.35;62.07;94328.44;2041612;70;20046;-74
2023/02/07 06:08:04;;;;;;;;;;;;;;;-3.38;62.07;94324.66;2041632;70;20135;-75
2023/02/07 06:10:29;;;;;;;;;;;;;;;-3.28;61.99;94335.56;2041679;70;20048;-73
2023/02/07 06:12:54;;;;;;;;;;;;;;;-3.23;61.30;94346.63;2041421;70;20060;-72
2023/02/07 06:15:20;;;;;;;;;;;;;;;-3.28;62.19;94352.84;2041605;70;20087;-72
2023/02/07 06:17:46;;;;;;;;;;;;;;;-3.28;61.83;94357.59;2041575;70;20047;-71
2023/02/07 06:20:11;;;;;;;;;;;;;;;-3.36;61.38;94366.25;2041628;70;20473;-72
2023/02/07 06:22:37;;;;;;;;;;;;;;;-3.33;62.24;94373.56;2041628;70;20511;-73
2023/02/07 06:25:02;;;;;;;;;;;;;;;-3.28;62.04;94380.38;2041564;70;20134;-73
2023/02/07 06:27:27;;;;;;;;;;;;;;;-3.49;62.55;94379.56;2041553;70;20491;-74
2023/02/07 06:29:53;;;;;;;;;;;;;;;-3.32;62.35;94386.09;2041630;70;20071;-76
2023/02/07 06:32:18;;;;;;;;;;;;;;;-3.41;62.14;94382.69;2041514;70;20054;-76
2023/02/07 06:34:44;;;;;;;;;;;;;;;-3.34;62.54;94380.31;2041504;70;20067;-76
2023/02/07 06:37:09;;;;;;;;;;;;;;;-3.41;62.21;94382.69;2041473;70;20121;-77
2023/02/07 06:39:35;;;;;;;;;;;;;;;-3.34;61.02;94372.06;2041547;70;20568;-73
2023/02/07 06:42:00;;;;;;;;;;;;;;;-3.43;61.85;94365.91;2038161;70;20047;-74
2023/02/07 06:44:25;;;;;;;;;;;;;;;-3.49;62.07;94365.06;2041432;70;20046;-72
2023/02/07 06:46:51;;;;;;;;;;;;;;;-3.44;61.18;94364.38;2041632;70;20123;-72
2023/02/07 06:49:16;;;;;;;;;;;;;;;-3.76;62.92;94377.91;2041485;70;20431;-73
2023/02/07 06:51:42;;;;;;;;;;;;;;;-3.56;62.71;94371.72;2041392;70;20043;-74
2023/02/07 06:54:08;;;;;;;;;;;;;;;-3.57;61.96;94370.22;2041368;70;20067;-72
2023/02/07 06:56:34;;;;;;;;;;;;;;;-3.47;62.74;94371.63;2041476;70;20047;-72
2023/02/07 06:58:59;;;;;;;;;;;;;;;-3.48;61.83;94372.84;2041167;70;20087;-73
2023/02/07 07:01:25;;;;;;;;;;;;;;;-3.45;62.69;94358.09;2041659;70;20052;-73
2023/02/07 07:03:51;;;;;;;;;;;;;;;-3.35;61.66;94355.97;2041508;70;20040;-72
2023/02/07 07:06:16;;;;;;;;;;;;;;;-3.40;61.80;94360.19;2041397;70;20096;-73
2023/02/07 07:08:42;;;;;;;;;;;;;;;-4.23;66.17;94365.16;2041347;70;20149;-73
2023/02/07 07:11:07;;;;;;;;;;;;;;;-3.92;65.24;94370.94;2038093;70;20168;-74
2023/02/07 07:13:33;;;;;;;;;;;;;;;-3.68;64.44;94378.28;2041310;70;20056;-73
2023/02/07 07:15:58;;;;;;;;;;;;;;;-3.65;63.59;94375.34;2038276;70;20487;-73
2023/02/07 07:18:23;;;;;;;;;;;;;;;-3.53;63.28;94373.50;2041396;70;20043;-71
2023/02/07 07:20:52;;;;;;;;;;;;;;;-3.75;63.52;94370.44;2041422;70;20051;-73
2023/02/07 07:23:18;;;;;;;;;;;;;;;-3.44;62.91;94383.66;2041345;70;20043;-72
2023/02/07 07:25:43;;;;;;;;;;;;;;;-3.66;63.33;94373.09;2041538;70;20048;-73
2023/02/07 07:28:09;;;;;;;;;;;;;;;-3.46;63.69;94386.88;2037941;70;20427;-75
2023/02/07 07:30:34;;;;;;;;;;;;;;;-3.37;62.46;94380.50;2041352;70;20496;-72
2023/02/07 07:33:02;;;;;;;;;;;;;;;-3.50;62.48;94383.56;2038258;70;20167;-76
2023/02/07 07:35:27;;;;;;;;;;;;;;;-3.49;62.95;94385.09;2041311;70;20084;-76
2023/02/07 07:37:53;;;;;;;;;;;;;;;-3.46;62.75;94383.38;2041382;70;20058;-73
2023/02/07 07:40:18;;;;;;;;;;;;;;;-3.39;63.22;94388.47;2041295;70;20182;-73
2023/02/07 07:42:44;;;;;;;;;;;;;;;-3.46;63.26;94395.16;2041373;70;20050;-71
2023/02/07 07:45:32;;;;;;;;;;;;;;;-3.36;64.01;94393.03;2041359;70;20115;-72
2023/02/07 07:47:57;;;;;;;;;;;;;;;-3.29;62.81;94394.66;2041459;70;20056;-75
2023/02/07 07:50:23;;;;;;;;;;;;;;;-3.23;64.00;94396.22;2041595;70;20047;-71
2023/02/07 07:52:48;;;;;;;;;;;;;;;-3.27;63.93;94392.91;2041542;70;20051;-73
2023/02/07 07:55:14;;;;;;;;;;;;;;;-3.21;63.50;94387.47;2041490;70;20044;-72
2023/02/07 07:57:39;;;;;;;;;;;;;;;-3.22;62.73;94383.97;2041209;70;20127;-75
2023/02/07 08:00:05;;;;;;;;;;;;;;;-3.29;64.23;94383.63;2041509;70;20412;-78
2023/02/07 08:02:38;;;;;;;;;;;;;;;-3.20;63.01;94383.50;2041447;70;20123;-73
2023/02/07 08:05:03;;;;;;;;;;;;;;;-3.22;63.10;94381.19;2041403;70;20051;-75
2023/02/07 08:07:29;;;;;;;;;;;;;;;-3.19;63.23;94372.00;2041416;70;20055;-76
2023/02/07 08:09:54;;;;;;;;;;;;;;;-3.13;62.82;94370.06;2041652;70;20060;-75
2023/02/07 08:12:20;;;;;;;;;;;;;;;-3.09;63.19;94367.09;2041582;70;20484;-74
2023/02/07 08:14:47;;;;;;;;;;;;;;;-2.96;62.00;94359.25;2041452;70;20071;-75
2023/02/07 08:17:13;;;;;;;;;;;;;;;-2.82;61.35;94354.91;2042034;70;20055;-76
2023/02/07 08:19:38;;;;;;;;;;;;;;;-2.81;60.62;94346.13;2038601;70;20059;-77
2023/02/07 08:22:04;;;;;;;;;;;;;;;-2.76;60.00;94341.94;2041995;70;20044;-75
2023/02/07 08:24:29;;;;;;;;;;;;;;;-2.89;60.65;94334.00;2041986;70;20052;-72
2023/02/07 08:26:57;;;;;;;;;;;;;;;-2.79;59.67;94333.88;2042116;70;20079;-75
2023/02/07 08:29:23;;;;;;;;;;;;;;;-2.68;57.86;94332.00;2041877;70;20044;-77
2023/02/07 08:31:48;;;;;;;;;;;;;;;-2.68;57.80;94334.00;2042042;70;20143;-71
2023/02/07 08:34:13;;;;;;;;;;;;;;;-2.68;57.63;94320.97;2041831;70;20043;-75
2023/02/07 08:36:39;;;;;;;;;;;;;;;-2.67;57.27;94319.72;2041861;70;20146;-76
2023/02/07 08:39:04;;;;;;;;;;;;;;;-1.88;58.55;94318.44;2041876;70;20123;-71
2023/02/07 08:41:30;;;;;;;;;;;;;;;-1.39;57.39;94310.94;2041867;70;20520;-73
2023/02/07 08:43:55;;;;;;;;;;;;;;;-0.90;57.34;94311.69;2041856;70;20052;-75
2023/02/07 08:46:20;;;;;;;;;;;;;;;-0.43;55.03;94301.00;2041993;70;20046;-73
2023/02/07 08:48:46;;;;;;;;;;;;;;;-0.09;53.91;94298.25;2041963;70;20135;-73
2023/02/07 08:51:11;;;;;;;;;;;;;;;0.38;53.10;94301.28;2041971;70;20047;-74
2023/02/07 08:53:37;;;;;;;;;;;;;;;0.23;52.01;94291.22;2042115;70;20579;-73
2023/02/07 08:56:04;;;;;;;;;;;;;;;0.30;50.79;94287.16;2041921;70;20059;-78
2023/02/07 08:58:32;;;;;;;;;;;;;;;0.52;51.41;94285.63;2038606;70;20201;-76
2023/02/07 09:00:57;;;;;;;;;;;;;;;0.54;50.92;94272.00;2041711;70;20572;-71
2023/02/07 09:03:23;;;;;;;;;;;;;;;0.75;51.38;94282.28;2041745;70;20560;-73
2023/02/07 09:05:48;;;;;;;;;;;;;;;1.13;51.00;94285.41;2041758;70;20496;-75
2023/02/07 09:08:14;;;;;;;;;;;;;;;1.12;50.61;94278.38;2041710;70;20051;-75
2023/02/07 09:10:39;;;;;;;;;;;;;;;1.68;49.38;94289.16;2041670;70;20164;-77
2023/02/07 09:13:05;;;;;;;;;;;;;;;2.27;47.85;94276.59;2041483;70;20048;-79
2023/02/07 09:15:30;;;;;;;;;;;;;;;2.52;46.56;94280.19;2041715;70;20487;-78
2023/02/07 09:17:55;;;;;;;;;;;;;;;2.54;46.75;94282.44;2041764;70;20434;-75
2023/02/07 09:20:21;;;;;;;;;;;;;;;2.25;45.02;94276.38;2041618;70;20418;-73
2023/02/07 09:25:30;;;;;;;;;;;;;;;3.13;45.78;94269.66;2041728;70;20413;-73
2023/02/07 09:27:56;;;;;;;;;;;;;;;3.43;44.12;94260.41;2041558;70;20040;-73
2023/02/07 09:30:21;;;;;;;;;;;;;;;4.04;44.18;94258.78;2041548;70;20461;-74
2023/02/07 09:32:49;;;;;;;;;;;;;;;3.92;41.37;94257.44;2041448;70;20054;-74
2023/02/07 09:35:17;;;;;;;;;;;;;;;3.54;41.88;94263.06;2041619;70;20062;-78
2023/02/07 09:37:42;;;;;;;;;;;;;;;4.11;42.55;94262.97;2041530;70;20051;-72
2023/02/07 09:40:12;;;;;;;;;;;;;;;4.10;40.64;94269.84;2041618;70;20152;-75
2023/02/07 09:42:42;;;;;;;;;;;;;;;3.56;42.35;94269.59;2041544;70;20067;-75
2023/02/07 09:45:11;;;;;;;;;;;;;;;3.33;42.82;94267.63;2038375;70;20063;-77
2023/02/07 09:47:37;;;;;;;;;;;;;;;3.97;39.64;94259.38;2041712;70;20499;-74
2023/02/07 09:50:15;;;;;;;;;;;;;;;4.13;39.83;94266.75;2041763;70;20488;-76
2023/02/07 09:52:43;;;;;;;;;;;;;;;4.89;39.94;94260.84;2041584;70;20075;-77
2023/02/07 09:55:17;;;;;;;;;;;;;;;4.91;40.74;94252.72;2041558;70;20064;-77
2023/02/07 09:57:47;;;;;;;;;;;;;;;5.98;38.87;94254.03;2041642;70;20054;-76
2023/02/07 10:00:13;;;;;;;;;;;;;;;5.59;37.61;94250.06;2041588;70;20123;-75
2023/02/07 10:02:44;;;;;;;;;;;;;;;6.79;38.16;94248.22;2041634;70;20230;-75
2023/02/07 10:05:16;;;;;;;;;;;;;;;5.10;37.85;94247.75;2041596;70;20146;-76
2023/02/07 10:07:43;;;;;;;;;;;;;;;4.90;38.72;94246.34;2038349;70;20484;-75
2023/02/07 10:10:15;;;;;;;;;;;;;;;6.79;37.64;94239.81;2035589;70;20044;-75
2023/02/07 10:12:58;;;;;;;;;;;;;;;7.53;35.65;94232.94;2041435;70;20079;-75
2023/02/07 10:15:26;;;;;;;;;;;;;;;6.81;35.96;94220.41;2041615;70;20138;-76
2023/02/07 10:17:54;;;;;;;;;;;;;;;6.86;35.51;94221.56;2041505;70;20058;-75
2023/02/07 10:20:29;;;;;;;;;;;;;;;7.82;35.25;94214.72;2041569;70;20055;-77
2023/02/07 10:22:57;;;;;;;;;;;;;;;6.97;34.37;94217.72;2041513;70;20048;-76
2023/02/07 10:25:47;;;;;;;;;;;;;;;6.36;34.72;94215.22;2041543;70;20200;-76
2023/02/07 10:28:12;;;;;;;;;;;;;;;7.94;33.64;94209.53;2041504;70;20050;-75
2023/02/07 10:30:39;;;;;;;;;;;;;;;8.87;33.06;94199.84;2041552;70;20055;-74
2023/02/07 10:33:15;;;;;;;;;;;;;;;9.54;32.28;94205.09;2041557;70;20083;-76
2023/02/07 10:35:43;;;;;;;;;;;;;;;10.02;30.63;94183.28;2041550;70;20047;-77
2023/02/07 10:38:26;;;;;;;;;;;;;;;10.09;30.69;94184.56;2041464;70;20048;-76
2023/02/07 10:40:58;;;;;;;;;;;;;;;8.59;30.98;94175.53;2041639;70;20049;-75
2023/02/07 10:43:28;;;;;;;;;;;;;;;9.42;32.08;94171.03;2041407;70;20535;-75
2023/02/07 10:46:04;;;;;;;;;;;;;;;9.78;29.81;94169.94;2041516;70;20110;-76
2023/02/07 10:48:30;;;;;;;;;;;;;;;9.83;29.74;94169.69;2041638;70;20480;-76
2023/02/07 10:50:59;;;;;;;;;;;;;;;10.96;28.27;94165.88;2041612;70;20147;-75
2023/02/07 10:53:44;;;;;;;;;;;;;;;11.40;26.72;94160.28;2041604;70;20428;-76
2023/02/07 10:56:21;;;;;;;;;;;;;;;10.66;27.44;94162.00;2041501;70;20055;-75
2023/02/07 10:58:49;;;;;;;;;;;;;;;10.50;27.16;94157.09;2038268;70;20070;-75
2023/02/07 11:01:19;;;;;;;;;;;;;;;12.56;25.93;94154.59;2041413;70;20448;-76
2023/02/07 11:03:45;;;;;;;;;;;;;;;10.67;25.68;94157.88;2041593;70;20504;-76
2023/02/07 11:06:13;;;;;;;;;;;;;;;13.50;24.72;94138.22;2041494;70;20083;-76
2023/02/07 11:08:39;;;;;;;;;;;;;;;14.01;22.80;94145.44;2041516;70;20075;-78
2023/02/07 11:11:23;;;;;;;;;;;;;;;13.05;22.88;94140.53;2041738;70;20111;-76
2023/02/07 11:13:50;;;;;;;;;;;;;;;13.92;23.03;94143.34;2041447;70;20083;-74
2023/02/07 11:16:18;;;;;;;;;;;;;;;16.56;23.34;94147.38;2041504;70;20135;-76
2023/02/07 11:18:45;;;;;;;;;;;;;;;17.69;22.17;94144.91;2038065;70;20547;-74
2023/02/07 11:21:27;;;;;;;;;;;;;;;18.97;20.93;94151.25;2038320;70;20040;-75
2023/02/07 11:23:54;;;;;;;;;;;;;;;17.27;20.54;94148.84;2041412;70;20512;-75
2023/02/07 11:26:20;;;;;;;;;;;;;;;19.40;19.53;94149.84;2041344;70;20549;-75
2023/02/07 11:28:49;;;;;;;;;;;;;;;20.27;19.27;94157.03;2041459;70;20477;-75
2023/02/07 11:31:16;;;;;;;;;;;;;;;21.52;16.93;94151.25;2038139;70;20048;-75
2023/02/07 11:33:42;;;;;;;;;;;;;;;21.63;17.40;94158.19;2041387;70;20154;-75
2023/02/07 11:36:14;;;;;;;;;;;;;;;19.63;18.83;94168.88;2035358;70;20190;-76
2023/02/07 11:38:47;;;;;;;;;;;;;;;21.72;16.80;94165.75;2038037;70;20447;-76
2023/02/07 11:41:26;;;;;;;;;;;;;;;20.05;17.61;94162.41;2038188;70;20081;-75
2023/02/07 11:44:01;;;;;;;;;;;;;;;22.20;16.55;94158.44;2041366;70;20055;-75
2023/02/07 11:46:33;;;;;;;;;;;;;;;21.41;17.16;94152.22;2041508;70;20086;-75
2023/02/07 11:48:59;;;;;;;;;;;;;;;22.81;16.38;94146.47;2041633;70;20055;-76
2023/02/07 11:51:24;;;;;;;;;;;;;;;23.95;15.74;94152.72;2041839;70;20055;-76
2023/02/07 11:53:51;;;;;;;;;;;;;;;23.98;14.61;94157.16;2041967;70;20043;-76
2023/02/07 11:56:35;;;;;;;;;;;;;;;25.05;14.79;94159.13;2041928;70;20050;-76
2023/02/07 11:59:06;;;;;;;;;;;;;;;25.14;14.42;94154.34;2038450;70;20059;-77
2023/02/07 12:01:33;;;;;;;;;;;;;;;23.66;14.45;94153.19;2041920;70;20040;-78
2023/02/07 12:04:00;;;;;;;;;;;;;;;25.40;13.99;94154.38;2041773;70;20067;-76
2023/02/07 12:06:48;;;;;;;;;;;;;;;24.58;14.29;94145.44;2041760;70;20126;-77
2023/02/07 12:09:20;;;;;;;;;;;;;;;26.24;13.43;94136.41;2041663;70;20056;-76
2023/02/07 12:11:46;;;;;;;;;;;;;;;26.57;13.48;94135.06;2041693;70;20107;-77
2023/02/07 12:14:18;;;;;;;;;;;;;;;26.83;12.92;94129.19;2041665;70;20079;-78
2023/02/07 12:16:48;;;;;;;;;;;;;;;26.70;14.28;94128.16;2041848;70;20056;-77
2023/02/07 12:19:20;;;;;;;;;;;;;;;26.72;13.93;94118.81;2041974;70;20052;-78
2023/02/07 12:22:09;;;;;;;;;;;;;;;25.69;14.16;94120.56;2041868;70;20138;-76
2023/02/07 12:24:39;;;;;;;;;;;;;;;27.28;12.33;94119.34;2041073;70;20557;-76
2023/02/07 12:27:07;;;;;;;;;;;;;;;26.73;12.80;94123.19;2041869;70;20040;-76
2023/02/07 12:29:53;;;;;;;;;;;;;;;25.62;13.69;94118.94;2041564;70;20055;-76
2023/02/07 12:32:37;;;;;;;;;;;;;;;24.24;13.78;94110.53;2041816;70;20107;-76
2023/02/07 12:35:22;;;;;;;;;;;;;;;22.09;15.11;94093.44;2041664;70;20047;-77
2023/02/07 12:38:06;;;;;;;;;;;;;;;21.58;14.69;94091.38;2041642;70;20059;-75
2023/02/07 12:40:37;;;;;;;;;;;;;;;19.04;16.28;94080.94;2041765;70;20051;-76
2023/02/07 12:43:07;;;;;;;;;;;;;;;17.52;16.83;94069.19;2038286;70;20047;-76
2023/02/07 12:45:39;;;;;;;;;;;;;;;14.27;20.01;94072.16;2038377;70;20051;-74
2023/02/07 12:48:23;;;;;;;;;;;;;;;12.86;22.69;94060.03;2038455;70;20054;-76
2023/02/07 12:50:58;;;;;;;;;;;;;;;11.81;23.92;94058.41;2041583;70;20435;-75
2023/02/07 12:53:23;;;;;;;;;;;;;;;11.66;24.59;94051.66;2041661;70;20048;-76
2023/02/07 12:55:57;;;;;;;;;;;;;;;11.89;24.27;94054.16;2041747;70;20055;-74
2023/02/07 12:58:31;;;;;;;;;;;;;;;10.99;25.09;94045.59;2041474;70;20048;-74
2023/02/07 13:01:15;;;;;;;;;;;;;;;10.39;26.23;94043.59;2040468;70;20087;-74
2023/02/07 13:04:01;;;;;;;;;;;;;;;10.67;25.81;94042.41;2041668;70;20083;-75